EPRZ/RZE METAR and TAF weather

Enter ICAO airport designator
Station Type Date Time Source
EPRZ METAR 2018/10/16 21:00 UTC NOAA

EPRZ 162100Z 07003KT 6000 NSC 05/03 Q1023


Station Type Date Time Source
EPRZ Decoded METAR 2018/10/16 21:00 UTC NOAA

Rzeszow-Jasionka, Poland (EPRZ) 50-06N 022-03E 202M
Oct 16, 2018 - 05:00 PM EDT / 2018.10.16 2100 UTC
Wind: from the ENE (070 degrees) at 3 MPH (3 KT):0
Visibility: 3 mile(s):0
Temperature: 41 F (5 C)
Dew Point: 37 F (3 C)
Relative Humidity: 86%
Pressure (altimeter): 30.21 in. Hg (1023 hPa)
ob: EPRZ 162100Z 07003KT 6000 NSC 05/03 Q1023
cycle: 21

Station Type Date Time Source
EPRZ TAF 2018/10/16 18:38 UTC NOAA

TAF EPRZ 161730Z 1618/1718 VRB02KT CAVOK


Example: see airport list